createdAt,value
2023-05-14T00:00:22.597Z,10.45
2023-05-14T00:02:49.451Z,10.38
2023-05-14T00:05:15.999Z,10.40
2023-05-14T00:07:43.544Z,10.34
2023-05-14T00:10:10.591Z,10.46
2023-05-14T00:12:37.111Z,10.27
2023-05-14T00:15:04.363Z,10.35
2023-05-14T00:17:30.878Z,10.33
2023-05-14T00:19:57.521Z,10.29
2023-05-14T00:22:24.081Z,10.14
2023-05-14T00:24:50.615Z,10.27
2023-05-14T00:27:17.123Z,10.28
2023-05-14T00:29:43.792Z,10.31
2023-05-14T00:32:10.801Z,10.19
2023-05-14T00:34:37.313Z,10.24
2023-05-14T00:37:04.113Z,10.23
2023-05-14T00:39:30.570Z,10.12
2023-05-14T00:41:57.044Z,10.28
2023-05-14T00:44:23.766Z,10.20
2023-05-14T00:46:50.484Z,10.19
2023-05-14T00:49:17.809Z,10.04
2023-05-14T00:51:46.873Z,10.22
2023-05-14T00:54:17.176Z,10.23
2023-05-14T00:56:46.065Z,10.30
2023-05-14T00:59:13.741Z,10.10
2023-05-14T01:01:40.542Z,10.11
2023-05-14T01:04:07.689Z,10.12
2023-05-14T01:06:59.158Z,10.19
2023-05-14T01:09:45.251Z,10.14
2023-05-14T01:12:31.135Z,10.10
2023-05-14T01:15:12.629Z,10.09
2023-05-14T01:17:45.228Z,10.13
2023-05-14T01:20:12.472Z,10.15
2023-05-14T01:22:38.989Z,9.96
2023-05-14T01:25:06.477Z,10.09
2023-05-14T01:27:46.290Z,10.10
2023-05-14T01:30:23.438Z,9.99
2023-05-14T01:32:53.597Z,10.00
2023-05-14T01:35:24.534Z,10.09
2023-05-14T01:37:52.525Z,9.94
2023-05-14T01:40:20.192Z,9.98
2023-05-14T01:42:47.203Z,10.01
2023-05-14T01:45:13.721Z,9.94
2023-05-14T01:47:40.257Z,9.94
2023-05-14T01:50:06.965Z,9.82
2023-05-14T01:52:33.993Z,9.86
2023-05-14T01:55:00.759Z,9.80
2023-05-14T01:57:27.359Z,9.93
2023-05-14T01:59:53.817Z,9.62
2023-05-14T02:02:20.362Z,9.71
2023-05-14T02:04:47.043Z,9.83
2023-05-14T02:07:13.591Z,9.77
2023-05-14T02:09:41.023Z,9.77
2023-05-14T02:12:08.980Z,9.76
2023-05-14T02:14:35.871Z,9.75
2023-05-14T02:17:03.442Z,9.79
2023-05-14T02:19:30.469Z,9.50
2023-05-14T02:21:59.469Z,9.77
2023-05-14T02:24:25.920Z,9.72
2023-05-14T02:26:52.638Z,9.66
2023-05-14T02:29:19.067Z,9.45
2023-05-14T02:31:45.602Z,9.57
2023-05-14T02:34:12.070Z,9.48
2023-05-14T02:36:38.543Z,9.56
2023-05-14T02:39:05.020Z,9.41
2023-05-14T02:41:31.482Z,9.62
2023-05-14T02:43:57.949Z,9.61
2023-05-14T02:46:25.230Z,9.64
2023-05-14T02:48:51.702Z,9.34
2023-05-14T02:51:20.462Z,9.59
2023-05-14T02:53:47.020Z,9.57
2023-05-14T02:56:13.516Z,9.51
2023-05-14T02:58:40.161Z,9.47
2023-05-14T03:01:07.040Z,9.48
2023-05-14T03:03:34.973Z,9.55
2023-05-14T03:06:01.588Z,9.43
2023-05-14T03:08:28.093Z,9.55
2023-05-14T03:10:54.612Z,9.55
2023-05-14T03:13:21.193Z,9.53
2023-05-14T03:15:48.441Z,9.48
2023-05-14T03:18:15.091Z,9.52
2023-05-14T03:20:42.221Z,9.46
2023-05-14T03:23:08.732Z,9.50
2023-05-14T03:25:36.438Z,9.51
2023-05-14T03:28:03.814Z,9.40
2023-05-14T03:30:30.529Z,9.43
2023-05-14T03:32:57.248Z,9.46
2023-05-14T03:35:23.727Z,9.33
2023-05-14T03:37:50.870Z,9.36
2023-05-14T03:40:17.411Z,9.24
2023-05-14T03:42:43.902Z,9.28
2023-05-14T03:45:10.724Z,9.30
2023-05-14T03:47:37.275Z,9.36
2023-05-14T03:50:04.078Z,9.32
2023-05-14T03:52:30.686Z,9.34
2023-05-14T03:54:57.184Z,9.31
2023-05-14T03:57:23.680Z,9.39
2023-05-14T03:59:50.190Z,9.28
2023-05-14T04:02:16.729Z,9.36
2023-05-14T04:04:43.536Z,9.30
2023-05-14T04:07:10.092Z,9.32
2023-05-14T04:09:36.610Z,9.29
2023-05-14T04:12:03.433Z,9.43
2023-05-14T04:14:30.072Z,9.30
2023-05-14T04:16:56.507Z,9.36
2023-05-14T04:19:22.987Z,9.38
2023-05-14T04:21:49.444Z,9.40
2023-05-14T04:24:17.116Z,9.40
2023-05-14T04:26:43.553Z,9.36
2023-05-14T04:29:10.027Z,9.41
2023-05-14T04:31:36.614Z,9.47
2023-05-14T04:34:03.127Z,9.47
2023-05-14T04:36:29.586Z,9.55
2023-05-14T04:38:56.630Z,9.51
2023-05-14T04:41:23.112Z,9.52
2023-05-14T04:43:50.818Z,9.52
2023-05-14T04:46:17.371Z,9.53
2023-05-14T04:48:43.883Z,9.56
2023-05-14T04:51:10.349Z,9.51
2023-05-14T04:53:36.811Z,9.49
2023-05-14T04:56:03.267Z,9.49
2023-05-14T04:58:33.776Z,9.52
2023-05-14T05:01:02.873Z,9.54
2023-05-14T05:03:29.504Z,9.52
2023-05-14T05:05:56.047Z,9.52
2023-05-14T05:08:22.815Z,9.60
2023-05-14T05:10:49.281Z,9.73
2023-05-14T05:13:17.000Z,9.76
2023-05-14T05:15:43.890Z,9.80
2023-05-14T05:18:10.362Z,9.62
2023-05-14T05:20:36.870Z,9.39
2023-05-14T05:23:03.347Z,9.52
2023-05-14T05:25:29.945Z,9.35
2023-05-14T05:27:56.702Z,9.42
2023-05-14T05:30:23.505Z,9.26
2023-05-14T05:32:50.270Z,9.46
2023-05-14T05:35:16.907Z,9.40
2023-05-14T05:37:45.133Z,9.42
2023-05-14T05:40:14.008Z,9.51
2023-05-14T05:42:41.535Z,9.48
2023-05-14T05:45:08.833Z,9.52
2023-05-14T05:47:35.353Z,9.50
2023-05-14T05:50:01.919Z,9.39
2023-05-14T05:52:28.740Z,9.68
2023-05-14T05:54:55.251Z,9.63
2023-05-14T05:57:25.642Z,9.57
2023-05-14T05:59:53.147Z,9.52
2023-05-14T06:02:20.015Z,9.55
2023-05-14T06:04:46.829Z,9.53
2023-05-14T06:07:13.356Z,9.54
2023-05-14T06:09:39.842Z,9.32
2023-05-14T06:12:06.854Z,9.41
2023-05-14T06:14:33.339Z,9.44
2023-05-14T06:16:59.965Z,9.39
2023-05-14T06:19:26.600Z,9.41
2023-05-14T06:21:53.088Z,9.44
2023-05-14T06:24:20.343Z,9.53
2023-05-14T06:26:48.786Z,9.52
2023-05-14T06:29:15.421Z,9.55
2023-05-14T06:31:42.025Z,9.57
2023-05-14T06:34:09.185Z,9.66
2023-05-14T06:36:35.681Z,9.69
2023-05-14T06:39:02.154Z,9.74
2023-05-14T06:41:29.577Z,9.80
2023-05-14T06:43:56.050Z,9.75
2023-05-14T06:46:22.666Z,9.67
2023-05-14T06:48:49.638Z,9.72
2023-05-14T06:51:16.270Z,9.72
2023-05-14T06:53:42.810Z,9.80
2023-05-14T06:56:09.380Z,9.78
2023-05-14T06:58:35.901Z,9.79
2023-05-14T07:01:02.444Z,9.76
2023-05-14T07:03:29.157Z,9.80
2023-05-14T07:05:55.886Z,9.83
2023-05-14T07:08:22.429Z,9.85
2023-05-14T07:10:49.090Z,9.80
2023-05-14T07:13:15.758Z,9.79
2023-05-14T07:15:42.245Z,9.78
2023-05-14T07:18:08.812Z,9.85
2023-05-14T07:20:35.505Z,9.86
2023-05-14T07:23:01.991Z,9.86
2023-05-14T07:25:28.587Z,9.95
2023-05-14T07:27:55.739Z,9.96
2023-05-14T07:30:22.536Z,10.02
2023-05-14T07:32:49.377Z,9.87
2023-05-14T07:35:16.235Z,9.90
2023-05-14T07:37:43.447Z,9.94
2023-05-14T07:40:10.390Z,10.03
2023-05-14T07:42:37.514Z,10.01
2023-05-14T07:45:05.351Z,10.02
2023-05-14T07:47:32.252Z,10.05
2023-05-14T07:49:59.226Z,10.12
2023-05-14T07:52:25.817Z,10.08
2023-05-14T07:54:52.624Z,10.14
2023-05-14T07:57:20.214Z,10.16
2023-05-14T07:59:48.232Z,10.02
2023-05-14T08:02:16.200Z,10.01
2023-05-14T08:04:43.036Z,10.10
2023-05-14T08:07:09.596Z,10.11
2023-05-14T08:09:36.131Z,10.11
2023-05-14T08:12:02.892Z,10.23
2023-05-14T08:14:29.401Z,10.07
2023-05-14T08:16:55.974Z,10.03
2023-05-14T08:19:24.285Z,10.10
2023-05-14T08:21:51.422Z,10.10
2023-05-14T08:24:18.769Z,10.08
2023-05-14T08:26:45.277Z,10.12
2023-05-14T08:29:13.402Z,10.14
2023-05-14T08:31:41.348Z,10.26
2023-05-14T08:34:08.028Z,10.26
2023-05-14T08:36:34.697Z,10.34
2023-05-14T08:39:01.486Z,10.31
2023-05-14T08:41:28.201Z,10.25
2023-05-14T08:44:13.516Z,10.27
2023-05-14T08:46:41.375Z,10.24
2023-05-14T08:49:25.106Z,10.24
2023-05-14T08:51:51.785Z,10.18
2023-05-14T08:54:22.474Z,10.15
2023-05-14T08:56:52.001Z,10.18
2023-05-14T08:59:19.139Z,10.21
2023-05-14T09:01:54.493Z,10.23
2023-05-14T09:04:23.152Z,10.26
2023-05-14T09:06:51.693Z,10.32
2023-05-14T09:09:18.601Z,10.34
2023-05-14T09:11:49.592Z,10.41
2023-05-14T09:14:16.346Z,10.34
2023-05-14T09:16:47.332Z,10.37
2023-05-14T09:19:15.700Z,10.40
2023-05-14T09:21:44.578Z,10.48
2023-05-14T09:24:20.205Z,10.52
2023-05-14T09:26:51.087Z,10.54
2023-05-14T09:29:17.688Z,10.64
2023-05-14T09:31:44.399Z,10.68
2023-05-14T09:34:11.282Z,10.68
2023-05-14T09:36:38.249Z,10.66
2023-05-14T09:39:04.975Z,10.65
2023-05-14T09:41:31.697Z,10.66
2023-05-14T09:43:58.250Z,10.66
2023-05-14T09:46:30.024Z,10.66
2023-05-14T09:48:56.941Z,10.60
2023-05-14T09:51:23.921Z,10.61
2023-05-14T09:53:53.023Z,10.61
2023-05-14T09:56:19.829Z,10.60
2023-05-14T09:58:46.338Z,10.61
2023-05-14T10:01:14.879Z,10.68
2023-05-14T10:03:41.668Z,10.83
2023-05-14T10:06:10.534Z,10.68
2023-05-14T10:08:41.175Z,10.77
2023-05-14T10:11:17.658Z,10.78
2023-05-14T10:13:51.803Z,10.80
2023-05-14T10:16:41.208Z,10.76
2023-05-14T10:19:12.704Z,10.71
2023-05-14T10:21:42.330Z,10.71
2023-05-14T10:24:09.900Z,10.68
2023-05-14T10:26:39.238Z,10.72
2023-05-14T10:29:06.640Z,10.83
2023-05-14T10:31:56.201Z,10.77
2023-05-14T10:34:33.730Z,10.78
2023-05-14T10:37:06.234Z,10.83
2023-05-14T10:39:51.228Z,10.79
2023-05-14T10:42:19.172Z,10.75
2023-05-14T10:44:53.444Z,10.67
2023-05-14T10:47:20.101Z,10.78
2023-05-14T10:49:50.748Z,10.79
2023-05-14T10:52:19.352Z,10.77
2023-05-14T10:54:49.835Z,10.81
2023-05-14T10:57:18.837Z,10.67
2023-05-14T10:59:47.311Z,10.70
2023-05-14T11:02:27.950Z,10.66
2023-05-14T11:05:05.076Z,10.72
2023-05-14T11:07:33.999Z,10.75
2023-05-14T11:10:04.295Z,10.79
2023-05-14T11:12:31.188Z,10.84
2023-05-14T11:14:59.262Z,10.79
2023-05-14T11:17:27.155Z,10.91
2023-05-14T11:19:54.476Z,10.96
2023-05-14T11:22:21.184Z,10.97
2023-05-14T11:24:47.732Z,10.99
2023-05-14T11:27:14.530Z,11.05
2023-05-14T11:29:45.396Z,11.08
2023-05-14T11:32:13.619Z,11.00
2023-05-14T11:34:40.883Z,11.08
2023-05-14T11:37:08.699Z,11.19
2023-05-14T11:39:38.949Z,11.15
2023-05-14T11:42:11.832Z,11.22
2023-05-14T11:44:39.310Z,11.23
2023-05-14T11:47:06.448Z,11.28
2023-05-14T11:49:35.535Z,11.28
2023-05-14T11:52:04.339Z,11.26
2023-05-14T11:54:32.250Z,11.30
2023-05-14T11:57:01.829Z,11.34
2023-05-14T11:59:31.379Z,11.36
2023-05-14T12:02:02.637Z,11.53
2023-05-14T12:04:29.573Z,11.74
2023-05-14T12:06:58.586Z,11.68
2023-05-14T12:09:25.943Z,11.73
2023-05-14T12:11:52.849Z,11.69
2023-05-14T12:14:22.228Z,11.73
2023-05-14T12:16:49.836Z,11.77
2023-05-14T12:19:19.786Z,11.80
2023-05-14T12:21:48.280Z,11.91
2023-05-14T12:24:18.273Z,11.98
2023-05-14T12:26:49.614Z,11.98
2023-05-14T12:29:16.916Z,12.19
2023-05-14T12:31:48.358Z,12.38
2023-05-14T12:34:15.810Z,12.43
2023-05-14T12:36:43.427Z,12.45
2023-05-14T12:39:11.175Z,12.54
2023-05-14T12:41:37.901Z,12.51
2023-05-14T12:44:05.045Z,12.49
2023-05-14T12:46:32.903Z,12.64
2023-05-14T12:48:59.857Z,12.65
2023-05-14T12:51:26.366Z,12.64
2023-05-14T12:53:54.163Z,12.69
2023-05-14T12:56:21.943Z,12.79
2023-05-14T12:58:48.550Z,12.95
2023-05-14T13:01:15.122Z,12.96
2023-05-14T13:03:41.679Z,12.93
2023-05-14T13:06:08.282Z,13.06
2023-05-14T13:08:35.347Z,13.00
2023-05-14T13:11:01.855Z,12.94
2023-05-14T13:13:28.504Z,12.88
2023-05-14T13:15:55.542Z,12.85
2023-05-14T13:18:22.063Z,12.85
2023-05-14T13:20:48.897Z,12.89
2023-05-14T13:23:15.592Z,12.94
2023-05-14T13:25:42.215Z,12.99
2023-05-14T13:28:09.243Z,13.11
2023-05-14T13:30:35.954Z,13.20
2023-05-14T13:33:02.530Z,13.19
2023-05-14T13:35:29.194Z,13.30
2023-05-14T13:37:55.759Z,13.37
2023-05-14T13:40:22.349Z,13.56
2023-05-14T13:42:49.204Z,13.52
2023-05-14T13:45:15.744Z,13.45
2023-05-14T13:47:42.711Z,13.43
2023-05-14T13:50:09.431Z,13.44
2023-05-14T13:52:36.149Z,13.37
2023-05-14T13:55:02.676Z,13.42
2023-05-14T13:57:29.171Z,13.43
2023-05-14T13:59:56.015Z,13.41
2023-05-14T14:02:22.553Z,13.50
2023-05-14T14:04:49.440Z,13.62
2023-05-14T14:07:16.038Z,13.72
2023-05-14T14:09:42.561Z,13.77
2023-05-14T14:12:09.609Z,14.11
2023-05-14T14:14:36.167Z,14.14
2023-05-14T14:17:02.728Z,14.27
2023-05-14T14:19:29.280Z,14.34
2023-05-14T14:21:55.793Z,14.37
2023-05-14T14:24:22.405Z,14.46
2023-05-14T14:26:48.899Z,14.45
2023-05-14T14:29:15.737Z,14.47
2023-05-14T14:31:43.448Z,14.42
2023-05-14T14:34:10.104Z,14.40
2023-05-14T14:36:36.679Z,14.50
2023-05-14T14:39:03.603Z,14.50
2023-05-14T14:41:30.256Z,14.54
2023-05-14T14:43:57.405Z,14.59
2023-05-14T14:46:24.193Z,14.64
2023-05-14T14:48:51.331Z,14.60
2023-05-14T14:51:17.993Z,14.64
2023-05-14T14:53:44.884Z,14.77
2023-05-14T14:56:11.572Z,14.85
2023-05-14T14:58:38.375Z,14.90
2023-05-14T15:01:05.619Z,14.92
2023-05-14T15:03:32.524Z,14.81
2023-05-14T15:05:59.519Z,14.84
2023-05-14T15:08:30.075Z,14.87
2023-05-14T15:10:56.919Z,14.88
2023-05-14T15:13:24.372Z,14.98
2023-05-14T15:15:52.471Z,15.04
2023-05-14T15:18:19.076Z,15.11
2023-05-14T15:20:46.232Z,15.20
2023-05-14T15:23:12.865Z,15.18
2023-05-14T15:25:39.527Z,15.22
2023-05-14T15:28:07.374Z,15.19
2023-05-14T15:30:34.106Z,15.07
2023-05-14T15:33:01.027Z,15.05
2023-05-14T15:35:27.556Z,15.24
2023-05-14T15:37:57.175Z,15.29
2023-05-14T15:40:24.063Z,15.38
2023-05-14T15:42:50.770Z,15.43
2023-05-14T15:45:17.430Z,15.46
2023-05-14T15:47:45.048Z,15.36
2023-05-14T15:50:11.770Z,15.27
2023-05-14T15:52:39.143Z,15.18
2023-05-14T15:55:06.246Z,14.91
2023-05-14T15:57:33.043Z,14.62
2023-05-14T15:59:59.611Z,14.37
2023-05-14T16:02:29.666Z,14.22
2023-05-14T16:04:56.281Z,13.95
2023-05-14T16:07:23.064Z,13.72
2023-05-14T16:09:49.563Z,13.59
2023-05-14T16:12:16.187Z,13.38
2023-05-14T16:14:42.717Z,13.05
2023-05-14T16:17:09.415Z,12.84
2023-05-14T16:19:36.437Z,12.73
2023-05-14T16:22:03.039Z,12.67
2023-05-14T16:24:29.650Z,12.64
2023-05-14T16:26:56.484Z,12.54
2023-05-14T16:29:22.982Z,12.55
2023-05-14T16:31:49.609Z,12.44
2023-05-14T16:34:16.163Z,12.40
2023-05-14T16:36:42.854Z,12.40
2023-05-14T16:39:09.416Z,12.47
2023-05-14T16:41:36.120Z,12.47
2023-05-14T16:44:03.409Z,12.51
2023-05-14T16:46:31.273Z,12.38
2023-05-14T16:48:57.914Z,12.23
2023-05-14T16:51:24.456Z,12.25
2023-05-14T16:53:51.961Z,12.24
2023-05-14T16:56:18.946Z,12.27
2023-05-14T16:58:45.505Z,12.16
2023-05-14T17:01:12.078Z,12.14
2023-05-14T17:03:38.655Z,12.09
2023-05-14T17:06:05.575Z,12.16
2023-05-14T17:08:33.596Z,12.19
2023-05-14T17:11:00.597Z,12.04
2023-05-14T17:13:27.177Z,12.06
2023-05-14T17:15:53.771Z,12.11
2023-05-14T17:18:20.432Z,11.93
2023-05-14T17:20:46.922Z,11.92
2023-05-14T17:23:13.506Z,11.78
2023-05-14T17:25:40.032Z,11.78
2023-05-14T17:28:06.618Z,11.71
2023-05-14T17:30:33.114Z,11.64
2023-05-14T17:32:59.898Z,11.66
2023-05-14T17:35:26.598Z,11.68
2023-05-14T17:37:53.125Z,11.69
2023-05-14T17:40:19.764Z,11.58
2023-05-14T17:42:46.357Z,11.55
2023-05-14T17:45:13.571Z,11.54
2023-05-14T17:47:41.258Z,11.50
2023-05-14T17:50:08.356Z,11.52
2023-05-14T17:52:34.865Z,11.53
2023-05-14T17:55:01.370Z,11.55
2023-05-14T17:57:27.923Z,11.51
2023-05-14T17:59:54.593Z,11.51
2023-05-14T18:02:21.103Z,11.57
2023-05-14T18:04:47.637Z,11.56
2023-05-14T18:07:14.261Z,11.53
2023-05-14T18:09:41.225Z,11.52
2023-05-14T18:12:08.292Z,11.47
2023-05-14T18:14:34.773Z,11.47
2023-05-14T18:17:01.379Z,11.53
2023-05-14T18:19:27.881Z,11.48
2023-05-14T18:21:55.539Z,11.50
2023-05-14T18:24:22.344Z,11.43
2023-05-14T18:26:48.988Z,11.47
2023-05-14T18:29:15.565Z,11.42
2023-05-14T18:31:42.058Z,11.40
2023-05-14T18:34:08.565Z,11.40
2023-05-14T18:36:35.322Z,11.37
2023-05-14T18:39:02.101Z,11.37
2023-05-14T18:41:28.666Z,11.32
2023-05-14T18:43:55.320Z,11.26
2023-05-14T18:46:21.880Z,11.26
2023-05-14T18:48:48.393Z,11.24
2023-05-14T18:51:15.021Z,11.22
2023-05-14T18:53:41.526Z,11.19
2023-05-14T18:56:09.501Z,11.13
2023-05-14T18:58:36.132Z,11.11
2023-05-14T19:01:02.778Z,11.00
2023-05-14T19:03:29.417Z,11.01
2023-05-14T19:05:56.002Z,11.05
2023-05-14T19:08:22.568Z,10.95
2023-05-14T19:10:49.265Z,10.89
2023-05-14T19:13:18.714Z,10.87
2023-05-14T19:15:45.348Z,10.74
2023-05-14T19:18:12.974Z,10.66
2023-05-14T19:20:39.504Z,10.60
2023-05-14T19:23:06.106Z,10.54
2023-05-14T19:25:33.670Z,10.47
2023-05-14T19:28:02.094Z,10.40
2023-05-14T19:30:28.591Z,10.29
2023-05-14T19:32:55.180Z,10.26
2023-05-14T19:35:22.206Z,10.21
2023-05-14T19:37:48.835Z,10.21
2023-05-14T19:40:15.390Z,10.22
2023-05-14T19:42:42.236Z,10.16
2023-05-14T19:45:10.152Z,10.10
2023-05-14T19:47:36.879Z,10.05
2023-05-14T19:50:03.612Z,10.03
2023-05-14T19:52:30.126Z,10.05
2023-05-14T19:54:56.892Z,10.11
2023-05-14T19:57:23.522Z,10.07
2023-05-14T19:59:50.070Z,10.04
2023-05-14T20:02:18.256Z,10.02
2023-05-14T20:04:46.089Z,10.03
2023-05-14T20:07:14.480Z,9.98
2023-05-14T20:09:41.651Z,9.95
2023-05-14T20:12:08.943Z,10.05
2023-05-14T20:14:35.873Z,10.09
2023-05-14T20:17:02.540Z,10.12
2023-05-14T20:19:29.111Z,10.18
2023-05-14T20:21:56.418Z,10.25
2023-05-14T20:24:22.914Z,10.29
2023-05-14T20:26:49.523Z,10.34
2023-05-14T20:29:16.092Z,10.39
2023-05-14T20:31:42.599Z,10.49
2023-05-14T20:34:09.467Z,10.45
2023-05-14T20:36:36.093Z,10.43
2023-05-14T20:39:02.889Z,10.46
2023-05-14T20:41:29.415Z,10.47
2023-05-14T20:43:55.935Z,10.48
2023-05-14T20:46:22.599Z,10.59
2023-05-14T20:48:49.382Z,10.52
2023-05-14T20:51:15.975Z,10.52
2023-05-14T20:53:42.782Z,10.48
2023-05-14T20:56:09.486Z,10.47
2023-05-14T20:58:36.021Z,10.45
2023-05-14T21:01:03.675Z,10.47
2023-05-14T21:03:30.578Z,10.43
2023-05-14T21:05:57.300Z,10.50
2023-05-14T21:08:23.799Z,10.53
2023-05-14T21:10:50.460Z,10.47
2023-05-14T21:13:16.947Z,10.50
2023-05-14T21:15:43.628Z,10.46
2023-05-14T21:18:11.409Z,10.42
2023-05-14T21:20:38.221Z,10.44
2023-05-14T21:23:04.767Z,10.42
2023-05-14T21:25:31.568Z,10.37
2023-05-14T21:27:58.066Z,10.34
2023-05-14T21:30:24.697Z,10.37
2023-05-14T21:32:51.667Z,10.34
2023-05-14T21:35:18.353Z,10.37
2023-05-14T21:37:45.005Z,10.37
2023-05-14T21:40:14.624Z,10.37
2023-05-14T21:42:41.111Z,10.35
2023-05-14T21:45:08.025Z,10.37
2023-05-14T21:47:34.747Z,10.36
2023-05-14T21:50:01.353Z,10.34
2023-05-14T21:52:27.863Z,10.37
2023-05-14T21:54:54.665Z,10.36
2023-05-14T21:57:21.261Z,10.33
2023-05-14T21:59:47.758Z,10.31
2023-05-14T22:02:14.718Z,10.32
2023-05-14T22:04:41.280Z,10.31
2023-05-14T22:07:07.881Z,10.37
2023-05-14T22:09:34.389Z,10.32
2023-05-14T22:12:00.891Z,10.29
2023-05-14T22:14:27.489Z,10.23
2023-05-14T22:16:54.136Z,10.22
2023-05-14T22:19:21.105Z,10.17
2023-05-14T22:21:47.629Z,10.09
2023-05-14T22:24:14.158Z,10.08
2023-05-14T22:26:40.696Z,10.01
2023-05-14T22:29:07.208Z,10.05
2023-05-14T22:31:33.690Z,10.06
2023-05-14T22:34:00.231Z,10.00
2023-05-14T22:36:26.969Z,9.96
2023-05-14T22:38:53.448Z,9.93
2023-05-14T22:41:21.826Z,9.89
2023-05-14T22:43:49.178Z,9.85
2023-05-14T22:46:16.037Z,9.91
2023-05-14T22:48:42.675Z,9.88
2023-05-14T22:51:09.198Z,9.79
2023-05-14T22:53:35.893Z,9.78
2023-05-14T22:56:02.776Z,9.77
2023-05-14T22:58:29.318Z,9.77
2023-05-14T23:00:55.977Z,9.79
2023-05-14T23:03:22.498Z,9.80
2023-05-14T23:05:49.205Z,9.70
2023-05-14T23:08:15.773Z,9.72
2023-05-14T23:10:42.264Z,9.69
2023-05-14T23:13:08.882Z,9.65
2023-05-14T23:15:35.416Z,9.66
2023-05-14T23:18:02.118Z,9.62
2023-05-14T23:20:28.630Z,9.62
2023-05-14T23:22:55.098Z,9.64
2023-05-14T23:25:21.576Z,9.68
2023-05-14T23:27:48.305Z,9.63
2023-05-14T23:30:14.847Z,9.60
2023-05-14T23:32:41.366Z,9.58
2023-05-14T23:35:08.274Z,9.57
2023-05-14T23:37:36.783Z,9.58
2023-05-14T23:40:04.443Z,9.58
2023-05-14T23:42:30.980Z,9.60
2023-05-14T23:44:57.492Z,9.62
2023-05-14T23:47:24.069Z,9.61
2023-05-14T23:49:50.710Z,9.59
2023-05-14T23:52:17.227Z,9.60
2023-05-14T23:54:43.782Z,9.65
2023-05-14T23:57:12.948Z,9.68
2023-05-14T23:59:40.839Z,9.63
